Time;durP1;ratioP1;P1;durP2;ratioP2;P2;SDS_P1;SDS_P2;PMS_P1;PMS_P2;Temp;Humidity;BMP_temperature;BMP_pressure;BME280_temperature;BME280_humidity;BME280_pressure;Samples;Min_cycle;Max_cycle;Signal;HPM_P1;HPM_P2
2022/04/02 00:04:29;;;;;;;;;;;;;;;;;;10407798;28;20443;-59
2022/04/02 00:09:29;;;;;;;;;;;;;;;;;;10408342;28;20027;-58
2022/04/02 00:14:30;;;;;;;;;;;;;;;;;;10407438;28;20311;-59
2022/04/02 00:19:30;;;;;;;;;;;;;;;;;;10401455;28;20007;-59
2022/04/02 00:24:31;;;;;;;;;;;;;;;;;;10407348;28;19921;-57
2022/04/02 00:29:34;;;;;;;;;;;;;;;;;;10407652;28;20007;-58
2022/04/02 00:34:34;;;;;;;;;;;;;;;;;;10407444;28;19928;-59
2022/04/02 00:39:34;;;;;;;;;;;;;;;;;;10407568;28;20403;-56
2022/04/02 00:44:35;;;;;;;;;;;;;;;;;;10414294;28;20004;-53
2022/04/02 00:49:35;;;;;;;;;;;;;;;;;;10415337;28;20369;-57
2022/04/02 00:54:39;;;;;;;;;;;;;;;;;;10414729;28;19978;-55
2022/04/02 00:59:39;;;;;;;;;;;;;;;;;;10413814;28;20292;-57
2022/04/02 01:04:39;;;;;;;;;;;;;;;;;;10414340;28;19921;-58
2022/04/02 01:09:40;;;;;;;;;;;;;;;;;;10415078;28;19970;-58
2022/04/02 01:14:40;;;;;;;;;;;;;;;;;;10414402;28;20407;-56
2022/04/02 01:19:42;;;;;;;;;;;;;;;;;;10414289;28;19917;-57
2022/04/02 01:24:42;;;;;;;;;;;;;;;;;;10412988;28;19925;-59
2022/04/02 01:29:43;;;;;;;;;;;;;;;;;;10413530;28;20081;-50
2022/04/02 01:34:43;;;;;;;;;;;;;;;;;;10415425;28;19943;-53
2022/04/02 01:39:44;;;;;;;;;;;;;;;;;;10417596;28;19995;-56
2022/04/02 01:44:51;;;;;;;;;;;;;;;;;;10413277;28;20005;-59
2022/04/02 01:49:51;;;;;;;;;;;;;;;;;;10413444;28;19925;-57
2022/04/02 01:54:52;;;;;;;;;;;;;;;;;;10412795;28;20284;-56
2022/04/02 01:59:52;;;;;;;;;;;;;;;;;;10412670;28;19922;-57
2022/04/02 02:04:52;;;;;;;;;;;;;;;;;;10412654;28;19968;-59
2022/04/02 02:09:57;;;;;;;;;;;;;;;;;;10412258;28;19983;-54
2022/04/02 02:14:58;;;;;;;;;;;;;;;;;;10412085;28;20322;-57
2022/04/02 02:19:58;;;;;;;;;;;;;;;;;;10412176;28;19931;-59
2022/04/02 02:24:58;;;;;;;;;;;;;;;;;;10412026;28;19944;-58
2022/04/02 02:29:59;;;;;;;;;;;;;;;;;;10411221;28;19921;-59
2022/04/02 02:40:19;;;;;;;;;;;;;;;;;;10411771;28;19925;-59
2022/04/02 02:45:20;;;;;;;;;;;;;;;;;;10411168;28;19917;-58
2022/04/02 02:50:21;;;;;;;;;;;;;;;;;;10410804;28;20288;-58
2022/04/02 02:55:21;;;;;;;;;;;;;;;;;;10379673;28;20511;-58
2022/04/02 03:00:22;;;;;;;;;;;;;;;;;;10394786;28;20207;-59
2022/04/02 03:05:23;;;;;;;;;;;;;;;;;;10409953;28;20326;-59
2022/04/02 03:10:26;;;;;;;;;;;;;;;;;;10410014;28;19917;-58
2022/04/02 03:15:27;;;;;;;;;;;;;;;;;;10404511;28;19948;-59
2022/04/02 03:20:28;;;;;;;;;;;;;;;;;;10369281;28;19924;-56
2022/04/02 03:25:29;;;;;;;;;;;;;;;;;;10410560;28;19917;-58
2022/04/02 03:30:30;;;;;;;;;;;;;;;;;;10409825;28;19923;-58
2022/04/02 03:35:30;;;;;;;;;;;;;;;;;;10409591;28;20166;-59
2022/04/02 03:40:31;;;;;;;;;;;;;;;;;;10409318;28;19917;-58
2022/04/02 03:45:31;;;;;;;;;;;;;;;;;;10409016;28;20368;-57
2022/04/02 03:50:32;;;;;;;;;;;;;;;;;;10409126;28;19917;-55
2022/04/02 03:55:33;;;;;;;;;;;;;;;;;;10407522;28;20459;-53
2022/04/02 04:00:33;;;;;;;;;;;;;;;;;;10409213;28;20174;-59
2022/04/02 04:05:33;;;;;;;;;;;;;;;;;;10408330;28;19990;-55
2022/04/02 04:10:34;;;;;;;;;;;;;;;;;;10408598;28;19996;-56
2022/04/02 04:15:34;;;;;;;;;;;;;;;;;;10409780;28;19921;-58
2022/04/02 04:20:35;;;;;;;;;;;;;;;;;;10417610;28;19924;-52
2022/04/02 04:25:35;;;;;;;;;;;;;;;;;;10416652;28;20412;-59
2022/04/02 04:30:35;;;;;;;;;;;;;;;;;;10416012;28;19953;-57
2022/04/02 04:35:36;;;;;;;;;;;;;;;;;;10415736;28;19921;-58
2022/04/02 04:40:36;;;;;;;;;;;;;;;;;;10414676;28;19929;-58
2022/04/02 04:45:37;;;;;;;;;;;;;;;;;;10404309;28;19956;-58
2022/04/02 04:50:37;;;;;;;;;;;;;;;;;;10386809;28;20008;-59
2022/04/02 04:55:37;;;;;;;;;;;;;;;;;;10390756;28;20462;-59
2022/04/02 05:00:42;;;;;;;;;;;;;;;;;;10375864;28;19921;-57
2022/04/02 05:05:43;;;;;;;;;;;;;;;;;;10404593;28;20026;-58
2022/04/02 05:10:43;;;;;;;;;;;;;;;;;;10391333;28;20438;-57
2022/04/02 05:15:45;;;;;;;;;;;;;;;;;;10412552;28;19921;-58
2022/04/02 05:20:45;;;;;;;;;;;;;;;;;;10412329;28;19921;-54
2022/04/02 05:25:46;;;;;;;;;;;;;;;;;;10397637;28;19929;-57
2022/04/02 05:30:46;;;;;;;;;;;;;;;;;;10410975;28;19923;-51
2022/04/02 05:35:48;;;;;;;;;;;;;;;;;;10410833;28;20020;-50
2022/04/02 05:40:48;;;;;;;;;;;;;;;;;;10411782;28;19924;-54
2022/04/02 05:45:49;;;;;;;;;;;;;;;;;;10413107;28;19928;-53
2022/04/02 05:50:49;;;;;;;;;;;;;;;;;;10412740;28;19921;-51
2022/04/02 05:55:50;;;;;;;;;;;;;;;;;;10412284;28;20042;-49
2022/04/02 06:00:50;;;;;;;;;;;;;;;;;;10412601;28;19975;-52
2022/04/02 06:05:51;;;;;;;;;;;;;;;;;;10409659;28;20433;-59
2022/04/02 06:10:51;;;;;;;;;;;;;;;;;;10398161;28;20006;-55
2022/04/02 06:15:52;;;;;;;;;;;;;;;;;;10407564;28;20058;-52
2022/04/02 06:20:56;;;;;;;;;;;;;;;;;;10408595;28;20156;-57
2022/04/02 06:25:57;;;;;;;;;;;;;;;;;;10411453;28;20008;-50
2022/04/02 06:30:57;;;;;;;;;;;;;;;;;;10411492;28;19929;-47
2022/04/02 06:35:58;;;;;;;;;;;;;;;;;;10410664;28;19921;-50
2022/04/02 06:40:58;;;;;;;;;;;;;;;;;;10410279;28;19921;-51
2022/04/02 06:45:59;;;;;;;;;;;;;;;;;;10389771;28;20016;-49
2022/04/02 06:51:01;;;;;;;;;;;;;;;;;;10409884;28;19927;-47
2022/04/02 06:56:01;;;;;;;;;;;;;;;;;;10410656;28;19970;-47
2022/04/02 07:01:02;;;;;;;;;;;;;;;;;;10410016;28;19921;-56
2022/04/02 07:06:03;;;;;;;;;;;;;;;;;;10410363;28;19921;-54
2022/04/02 07:11:04;;;;;;;;;;;;;;;;;;10408115;28;19933;-60
2022/04/02 07:16:04;;;;;;;;;;;;;;;;;;10407219;28;19928;-56
2022/04/02 07:21:05;;;;;;;;;;;;;;;;;;10409708;28;20380;-60
2022/04/02 07:26:06;;;;;;;;;;;;;;;;;;10407555;28;20419;-55
2022/04/02 07:31:06;;;;;;;;;;;;;;;;;;10407950;28;20391;-59
2022/04/02 07:36:31;;;;;;;;;;;;;;;;;;10407379;28;19932;-52
2022/04/02 07:41:52;;;;;;;;;;;;;;;;;;10403165;28;19917;-59
2022/04/02 07:46:54;;;;;;;;;;;;;;;;;;10409052;28;19913;-61
2022/04/02 07:51:55;;;;;;;;;;;;;;;;;;10407804;28;20391;-59
2022/04/02 07:57:01;;;;;;;;;;;;;;;;;;10403270;28;19960;-52
2022/04/02 08:02:04;;;;;;;;;;;;;;;;;;10406013;28;20281;-63
2022/04/02 08:08:29;;;;;;;18.70;3.78;;;;;;;;;;10483738;28;20629;-60
2022/04/02 08:13:32;;;;;;;19.40;3.95;;;;;;;;;;10404737;28;20060;-61
2022/04/02 08:18:33;;;;;;;27.65;4.35;;;;;;;;;;10398022;28;20453;-60
2022/04/02 08:23:34;;;;;;;23.45;4.60;;;;;;;;;;10435835;28;20029;-69
2022/04/02 08:29:15;;;;;;;17.92;3.30;;;;;;;;;;10440041;28;20033;-72
2022/04/02 08:36:38;;;;;;;15.63;3.05;;;;;;;;;;10464841;28;20637;-53
2022/04/02 08:42:21;;;;;;;23.23;4.57;;;;;;;;;;10448989;28;20041;-53
2022/04/02 08:47:59;;;;;;;33.50;4.47;;;;;;;;;;10445293;28;20434;-55
2022/04/02 08:53:19;;;;;;;22.92;3.60;;;;;;;;;;10423103;28;20462;-52
2022/04/02 08:58:56;;;;;;;19.80;3.63;;;;;;;;;;10414121;28;20124;-49
2022/04/02 09:04:15;;;;;;;12.88;3.05;;;;;;;;;;10420375;28;20029;-45
2022/04/02 09:09:55;;;;;;;19.00;3.78;;;;;;;;;;10436131;28;20085;-51
2022/04/02 09:15:28;;;;;;;18.73;3.63;;;;;;;;;;10408746;28;20484;-52
2022/04/02 09:20:56;;;;;;;20.85;3.13;;;;;;;;;;10384999;28;20041;-42
2022/04/02 09:26:21;;;;;;;16.17;3.47;;;;;;;;;;10442461;28;20033;-43
2022/04/02 09:31:48;;;;;;;9.98;2.72;;;;;;;;;;10400133;28;20037;-48
2022/04/02 09:37:03;;;;;;;12.75;3.28;;;;;;;;;;10341633;28;20088;-58
2022/04/02 09:42:26;;;;;;;21.40;3.08;;;;;;;;;;10413083;28;20541;-57
2022/04/02 09:47:51;;;;;;;11.23;2.53;;;;;;;;;;10386440;28;20063;-52
2022/04/02 09:53:04;;;;;;;7.75;2.67;;;;;;;;;;10390885;28;20034;-51
2022/04/02 09:58:42;;;;;;;5.55;2.45;;;;;;;;;;10385756;28;20041;-51
2022/04/02 10:04:16;;;;;;;9.57;3.35;;;;;;;;;;10388231;28;20030;-53
2022/04/02 10:09:20;;;;;;;12.40;2.75;;;;;;;;;;10390444;28;20065;-51
2022/04/02 10:14:28;;;;;;;9.32;2.97;;;;;;;;;;10376988;28;20044;-50
2022/04/02 10:19:33;;;;;;;7.57;2.58;;;;;;;;;;10396335;28;20045;-52
2022/04/02 10:24:47;;;;;;;6.13;2.35;;;;;;;;;;10404712;28;20040;-50
2022/04/02 10:29:54;;;;;;;7.20;2.60;;;;;;;;;;10402467;28;20037;-52
2022/04/02 10:35:07;;;;;;;9.90;2.60;;;;;;;;;;10352683;28;20053;-52
2022/04/02 10:40:12;;;;;;;5.18;1.92;;;;;;;;;;10354217;28;20095;-50
2022/04/02 10:45:14;;;;;;;9.85;2.03;;;;;;;;;;10347256;28;20041;-51
2022/04/02 10:50:22;;;;;;;6.32;2.00;;;;;;;;;;10406499;28;20164;-52
2022/04/02 10:55:23;;;;;;;6.80;2.37;;;;;;;;;;10397817;28;20037;-51
2022/04/02 11:00:29;;;;;;;9.43;2.38;;;;;;;;;;10409452;28;20033;-56
2022/04/02 11:05:37;;;;;;;6.55;2.53;;;;;;;;;;10394715;28;20034;-62
2022/04/02 11:10:38;;;;;;;11.38;2.17;;;;;;;;;;10389926;28;20041;-60
2022/04/02 11:15:41;;;;;;;4.90;2.10;;;;;;;;;;10392610;28;20045;-54
2022/04/02 11:20:43;;;;;;;5.35;2.25;;;;;;;;;;10410912;28;20049;-51
2022/04/02 11:25:50;;;;;;;7.30;2.38;;;;;;;;;;10399787;28;20039;-53
2022/04/02 11:31:05;;;;;;;6.60;2.30;;;;;;;;;;10390698;28;20040;-60
2022/04/02 11:36:14;;;;;;;8.13;2.22;;;;;;;;;;10404957;28;20504;-54
2022/04/02 11:41:38;;;;;;;4.95;2.40;;;;;;;;;;10405822;28;20034;-53
2022/04/02 11:47:15;;;;;;;8.10;2.28;;;;;;;;;;10313854;28;20064;-51
2022/04/02 11:52:16;;;;;;;12.85;2.53;;;;;;;;;;10343146;28;20065;-54
2022/04/02 11:57:18;;;;;;;12.13;2.60;;;;;;;;;;10354904;28;20037;-51
2022/04/02 12:02:43;;;;;;;6.40;2.70;;;;;;;;;;10351968;28;20520;-51
2022/04/02 12:07:45;;;;;;;8.63;2.72;;;;;;;;;;10358827;28;20281;-53
2022/04/02 12:12:48;;;;;;;3.97;2.13;;;;;;;;;;10362622;28;20531;-53
2022/04/02 12:17:53;;;;;;;8.70;2.78;;;;;;;;;;10352167;28;20065;-50
2022/04/02 12:23:17;;;;;;;14.07;2.60;;;;;;;;;;10353585;28;20078;-57
2022/04/02 12:28:19;;;;;;;5.00;2.60;;;;;;;;;;10385680;28;20124;-58
2022/04/02 12:33:23;;;;;;;9.02;2.90;;;;;;;;;;10407572;28;20136;-57
2022/04/02 12:38:30;;;;;;;7.72;2.50;;;;;;;;;;10408538;28;20033;-58
2022/04/02 12:43:37;;;;;;;4.70;2.20;;;;;;;;;;10407206;28;20639;-59
2022/04/02 12:48:44;;;;;;;6.30;2.38;;;;;;;;;;10400481;28;20472;-56
2022/04/02 12:53:59;;;;;;;7.35;2.58;;;;;;;;;;10407116;28;20475;-59
2022/04/02 12:59:01;;;;;;;4.75;2.33;;;;;;;;;;10389240;28;20033;-58
2022/04/02 13:04:08;;;;;;;7.70;2.28;;;;;;;;;;10313735;28;20030;-60
2022/04/02 13:09:21;;;;;;;6.30;2.50;;;;;;;;;;10381819;28;20067;-59
2022/04/02 13:14:34;;;;;;;6.45;2.08;;;;;;;;;;10340523;28;20128;-57
2022/04/02 13:25:25;;;;;;;10.15;2.40;;;;;;;;;;10400447;28;20219;-52
2022/04/02 13:31:01;;;;;;;5.05;2.15;;;;;;;;;;10420462;28;20368;-56
2022/04/02 13:36:15;;;;;;;5.32;2.65;;;;;;;;;;10416784;28;20103;-57
2022/04/02 13:41:32;;;;;;;5.88;2.05;;;;;;;;;;10418381;28;20053;-56
2022/04/02 13:46:43;;;;;;;3.08;1.85;;;;;;;;;;10407374;28;20116;-53
2022/04/02 13:51:55;;;;;;;6.45;2.22;;;;;;;;;;10391942;28;20052;-55
2022/04/02 13:56:56;;;;;;;7.45;2.58;;;;;;;;;;10412833;28;20045;-53
2022/04/02 14:01:58;;;;;;;4.32;2.25;;;;;;;;;;10416218;28;20414;-56
2022/04/02 14:07:02;;;;;;;4.60;1.90;;;;;;;;;;10408198;28;20033;-51
2022/04/02 14:12:10;;;;;;;3.88;1.88;;;;;;;;;;10409726;28;20060;-55
2022/04/02 14:17:15;;;;;;;4.30;1.80;;;;;;;;;;10344410;28;20133;-53
2022/04/02 14:22:21;;;;;;;4.80;1.92;;;;;;;;;;10377654;28;20041;-57
2022/04/02 14:27:34;;;;;;;6.60;2.63;;;;;;;;;;10382437;28;20036;-54
2022/04/02 14:33:24;;;;;;;5.85;2.00;;;;;;;;;;10415299;28;20041;-55
2022/04/02 14:38:59;;;;;;;5.63;2.15;;;;;;;;;;10408307;28;20455;-55
2022/04/02 14:44:08;;;;;;;4.05;2.08;;;;;;;;;;10412161;28;20029;-52
2022/04/02 14:49:52;;;;;;;7.30;1.90;;;;;;;;;;10412274;28;20473;-53
2022/04/02 14:55:08;;;;;;;3.78;2.20;;;;;;;;;;10402723;28;20689;-56
2022/04/02 15:00:58;;;;;;;5.30;2.03;;;;;;;;;;10391253;28;20061;-57
2022/04/02 15:06:28;;;;;;;3.58;1.98;;;;;;;;;;10414117;28;20519;-60
2022/04/02 15:11:33;;;;;;;2.85;1.83;;;;;;;;;;10394349;28;20129;-60
2022/04/02 15:16:34;;;;;;;8.50;2.40;;;;;;;;;;10397606;28;20033;-60
2022/04/02 15:21:34;;;;;;;8.35;1.70;;;;;;;;;;10397110;28;21354;-58
2022/04/02 15:26:49;;;;;;;4.63;2.00;;;;;;;;;;10316885;28;20095;-60
2022/04/02 15:32:16;;;;;;;3.67;1.95;;;;;;;;;;10417598;28;20072;-57
2022/04/02 15:37:34;;;;;;;5.00;2.00;;;;;;;;;;10410125;28;20095;-60
2022/04/02 15:42:59;;;;;;;3.55;1.95;;;;;;;;;;10356048;28;20493;-57
2022/04/02 15:48:01;;;;;;;4.88;1.70;;;;;;;;;;10404317;28;20032;-60
2022/04/02 15:53:08;;;;;;;4.70;2.13;;;;;;;;;;10407194;28;20164;-60
2022/04/02 15:58:08;;;;;;;3.25;1.95;;;;;;;;;;10406008;28;20447;-59
2022/04/02 16:03:31;;;;;;;3.38;1.90;;;;;;;;;;10413679;28;20044;-60
2022/04/02 16:08:32;;;;;;;4.32;2.00;;;;;;;;;;10400419;28;20045;-60
2022/04/02 16:13:33;;;;;;;5.20;1.90;;;;;;;;;;10405792;28;20040;-57
2022/04/02 16:18:35;;;;;;;3.50;2.00;;;;;;;;;;10406491;28;20029;-59
2022/04/02 16:23:37;;;;;;;7.72;2.35;;;;;;;;;;10410523;28;20113;-54
2022/04/02 16:28:43;;;;;;;5.10;1.92;;;;;;;;;;10394498;28;20034;-60
2022/04/02 16:33:46;;;;;;;4.72;2.10;;;;;;;;;;10385055;28;20060;-59
2022/04/02 16:39:00;;;;;;;5.65;2.28;;;;;;;;;;10367080;28;20029;-57
2022/04/02 16:44:27;;;;;;;3.40;1.90;;;;;;;;;;10376458;28;20037;-59
2022/04/02 16:49:29;;;;;;;4.10;1.88;;;;;;;;;;10400233;28;20029;-58
2022/04/02 16:54:29;;;;;;;5.25;2.38;;;;;;;;;;10395073;28;20105;-57
2022/04/02 16:59:36;;;;;;;5.05;2.15;;;;;;;;;;10370209;28;20060;-56
2022/04/02 17:04:37;;;;;;;4.45;2.10;;;;;;;;;;10405376;28;20037;-56
2022/04/02 17:09:39;;;;;;;4.22;2.38;;;;;;;;;;10415429;28;20112;-57
2022/04/02 17:14:41;;;;;;;6.30;2.03;;;;;;;;;;10416403;28;20439;-57
2022/04/02 17:19:42;;;;;;;4.05;2.28;;;;;;;;;;10413878;28;20384;-56
2022/04/02 17:24:42;;;;;;;4.90;2.53;;;;;;;;;;10410455;28;20040;-56
2022/04/02 17:29:45;;;;;;;3.08;1.90;;;;;;;;;;10414825;28;20034;-55
2022/04/02 17:34:53;;;;;;;5.20;2.70;;;;;;;;;;10409640;28;20056;-57
2022/04/02 17:40:05;;;;;;;4.80;2.10;;;;;;;;;;10403522;28;20345;-56
2022/04/02 17:45:19;;;;;;;6.43;2.15;;;;;;;;;;10403709;28;20102;-55
2022/04/02 17:50:29;;;;;;;4.43;2.30;;;;;;;;;;10398375;28;20052;-57
2022/04/02 17:55:39;;;;;;;3.75;2.10;;;;;;;;;;10364200;28;20045;-57
2022/04/02 18:00:49;;;;;;;3.35;2.00;;;;;;;;;;10342425;28;20231;-56
2022/04/02 18:05:50;;;;;;;6.88;1.90;;;;;;;;;;10344377;28;20980;-56
2022/04/02 18:10:50;;;;;;;2.80;2.00;;;;;;;;;;10392069;28;20037;-56
2022/04/02 18:15:51;;;;;;;3.72;2.25;;;;;;;;;;10395711;28;20029;-56
2022/04/02 18:20:51;;;;;;;3.15;1.80;;;;;;;;;;10413220;28;20040;-56
2022/04/02 18:25:52;;;;;;;3.80;2.15;;;;;;;;;;10410959;28;20029;-57
2022/04/02 18:30:54;;;;;;;4.18;2.00;;;;;;;;;;10407433;28;20037;-57
2022/04/02 18:35:54;;;;;;;4.43;2.10;;;;;;;;;;10411106;28;20455;-57
2022/04/02 18:40:55;;;;;;;3.35;1.95;;;;;;;;;;10382449;28;20030;-57
2022/04/02 18:45:56;;;;;;;5.43;2.22;;;;;;;;;;10407024;28;20043;-59
2022/04/02 18:50:57;;;;;;;16.52;3.05;;;;;;;;;;10410390;28;20029;-58
2022/04/02 18:55:57;;;;;;;11.68;3.00;;;;;;;;;;10406289;28;20029;-56
2022/04/02 19:00:59;;;;;;;8.68;3.03;;;;;;;;;;10406520;28;20033;-58
2022/04/02 19:06:00;;;;;;;13.25;2.50;;;;;;;;;;10365515;28;20326;-56
2022/04/02 19:11:01;;;;;;;9.93;2.75;;;;;;;;;;10399430;28;20032;-56
2022/04/02 19:16:02;;;;;;;8.00;3.00;;;;;;;;;;10409359;28;20120;-59
2022/04/02 19:21:03;;;;;;;14.23;3.55;;;;;;;;;;10354886;28;20079;-57
2022/04/02 19:26:05;;;;;;;9.82;2.65;;;;;;;;;;10412180;28;20029;-60
2022/04/02 19:31:06;;;;;;;7.45;3.08;;;;;;;;;;10408077;28;20260;-58
2022/04/02 19:36:06;;;;;;;8.98;3.13;;;;;;;;;;10402976;28;20282;-59
2022/04/02 19:41:09;;;;;;;14.23;2.83;;;;;;;;;;10408522;28;20026;-57
2022/04/02 19:46:10;;;;;;;8.05;2.83;;;;;;;;;;10408278;28;20022;-58
2022/04/02 19:51:11;;;;;;;8.50;3.00;;;;;;;;;;10403941;28;20518;-59
2022/04/02 19:56:12;;;;;;;5.15;3.08;;;;;;;;;;10403053;28;20061;-58
2022/04/02 20:01:13;;;;;;;12.73;3.08;;;;;;;;;;10345153;22;20479;-58
2022/04/02 20:06:13;;;;;;;8.70;2.65;;;;;;;;;;10241053;28;20106;-59
2022/04/02 20:11:15;;;;;;;7.32;3.17;;;;;;;;;;10235649;28;20078;-60
2022/04/02 20:21:38;;;;;;;19.88;4.00;;;;;;;;;;10379227;28;20741;-62
2022/04/02 20:26:39;;;;;;;18.05;4.20;;;;;;;;;;10403956;28;20037;-60
2022/04/02 20:31:39;;;;;;;30.25;3.60;;;;;;;;;;10396046;28;20370;-58
2022/04/02 20:36:40;;;;;;;16.83;3.80;;;;;;;;;;10398023;28;20687;-56
2022/04/02 20:41:42;;;;;;;19.00;2.92;;;;;;;;;;10398578;28;20053;-52
2022/04/02 20:46:46;;;;;;;17.52;3.78;;;;;;;;;;10400386;28;20504;-51
2022/04/02 20:51:47;;;;;;;24.85;4.22;;;;;;;;;;10400902;28;20045;-49
2022/04/02 20:56:49;;;;;;;13.40;3.67;;;;;;;;;;10413187;28;20413;-52
2022/04/02 21:01:49;;;;;;;14.77;3.08;;;;;;;;;;10408042;28;20083;-50
2022/04/02 21:06:50;;;;;;;12.75;2.78;;;;;;;;;;10432506;28;20079;-47
2022/04/02 21:11:56;;;;;;;13.30;3.25;;;;;;;;;;10434482;28;20038;-47
2022/04/02 21:16:57;;;;;;;10.35;3.05;;;;;;;;;;10403228;28;20458;-48
2022/04/02 21:21:58;;;;;;;10.85;3.05;;;;;;;;;;10403782;28;20029;-46
2022/04/02 21:26:58;;;;;;;9.43;3.03;;;;;;;;;;10400254;28;20072;-46
2022/04/02 21:31:59;;;;;;;10.07;2.85;;;;;;;;;;10378267;28;20492;-49
2022/04/02 21:37:00;;;;;;;10.23;3.65;;;;;;;;;;10372798;28;20088;-49
2022/04/02 21:42:00;;;;;;;9.30;2.60;;;;;;;;;;10372551;28;20038;-49
2022/04/02 21:47:02;;;;;;;9.60;2.70;;;;;;;;;;10370997;28;20033;-47
2022/04/02 21:52:04;;;;;;;8.82;2.65;;;;;;;;;;10367432;28;20462;-49
2022/04/02 21:57:04;;;;;;;5.93;2.63;;;;;;;;;;10377295;28;20136;-46
2022/04/02 22:02:10;;;;;;;10.00;2.78;;;;;;;;;;10373330;28;20124;-54
2022/04/02 22:07:15;;;;;;;9.20;2.42;;;;;;;;;;10371922;28;20124;-46
2022/04/02 22:12:16;;;;;;;8.27;2.80;;;;;;;;;;10386728;28;20026;-47
2022/04/02 22:17:17;;;;;;;10.05;2.25;;;;;;;;;;10368412;28;20042;-49
2022/04/02 22:22:18;;;;;;;5.40;2.60;;;;;;;;;;10368083;28;20056;-46
2022/04/02 22:27:18;;;;;;;6.32;2.50;;;;;;;;;;10367814;28;20052;-47
2022/04/02 22:32:19;;;;;;;8.32;2.25;;;;;;;;;;10367319;28;20439;-49
2022/04/02 22:37:20;;;;;;;7.47;2.08;;;;;;;;;;10368838;28;20037;-46
2022/04/02 22:42:20;;;;;;;6.10;2.35;;;;;;;;;;10370261;28;20049;-47
2022/04/02 22:47:21;;;;;;;5.50;2.13;;;;;;;;;;10380096;28;20038;-48
2022/04/02 22:52:23;;;;;;;4.03;1.83;;;;;;;;;;10369983;28;20068;-47
2022/04/02 22:57:24;;;;;;;5.32;2.25;;;;;;;;;;10366736;28;20022;-60
2022/04/02 23:02:28;;;;;;;6.47;2.40;;;;;;;;;;10367668;28;20116;-60
2022/04/02 23:07:28;;;;;;;4.15;2.10;;;;;;;;;;10366958;28;20072;-59
2022/04/02 23:12:29;;;;;;;5.25;2.05;;;;;;;;;;10368699;28;20088;-52
2022/04/02 23:17:30;;;;;;;7.72;2.40;;;;;;;;;;10369016;28;20046;-58
2022/04/02 23:22:31;;;;;;;3.47;1.83;;;;;;;;;;10367415;28;20084;-58
2022/04/02 23:27:32;;;;;;;5.10;2.08;;;;;;;;;;10365334;28;20395;-58
2022/04/02 23:32:33;;;;;;;4.32;2.10;;;;;;;;;;10359449;28;20022;-62
2022/04/02 23:37:34;;;;;;;5.43;2.20;;;;;;;;;;10359836;28;20175;-59
2022/04/02 23:42:35;;;;;;;3.42;1.77;;;;;;;;;;10362881;28;20181;-62
2022/04/02 23:47:36;;;;;;;5.10;2.03;;;;;;;;;;10386569;28;20487;-61
2022/04/02 23:52:37;;;;;;;6.30;2.00;;;;;;;;;;10368369;28;20025;-60
2022/04/02 23:57:38;;;;;;;6.32;2.25;;;;;;;;;;10379969;28;20060;-59
